Time;durP1;ratioP1;P1;durP2;ratioP2;P2;SDS_P1;SDS_P2;PMS_P1;PMS_P2;Temp;Humidity;BMP_temperature;BMP_pressure;BME280_temperature;BME280_humidity;BME280_pressure;Samples;Min_cycle;Max_cycle;Signal;HPM_P1;HPM_P2
2023/02/19 00:01:34;;;;;;;;;;;;;;;10.25;100.00;96093.56;10525784;28;2268;-68
2023/02/19 00:06:36;;;;;;;;;;;;;;;10.20;100.00;96081.97;10523578;28;2889;-69
2023/02/19 00:11:39;;;;;;;;;;;;;;;10.17;100.00;96077.91;10529321;28;2573;-68
2023/02/19 00:16:41;;;;;;;;;;;;;;;10.20;100.00;96072.03;10523210;28;2188;-70
2023/02/19 00:21:44;;;;;;;;;;;;;;;10.15;100.00;96074.69;10520341;28;2564;-68
2023/02/19 00:26:47;;;;;;;;;;;;;;;10.16;100.00;96062.88;10529148;28;2220;-69
2023/02/19 00:31:49;;;;;;;;;;;;;;;10.10;100.00;96066.59;10530857;28;2145;-67
2023/02/19 00:36:52;;;;;;;;;;;;;;;10.10;100.00;96050.50;10522368;28;2841;-68
2023/02/19 00:41:54;;;;;;;;;;;;;;;10.15;100.00;96055.06;10526387;28;2955;-68
2023/02/19 00:46:56;;;;;;;;;;;;;;;10.09;100.00;96048.88;10528019;28;2639;-67
2023/02/19 00:51:59;;;;;;;;;;;;;;;10.10;100.00;96055.06;10504906;28;2578;-66
2023/02/19 00:57:01;;;;;;;;;;;;;;;10.12;100.00;96044.88;10530998;28;2823;-68
2023/02/19 01:02:04;;;;;;;;;;;;;;;10.15;100.00;96042.44;10522108;28;2169;-67
2023/02/19 01:07:06;;;;;;;;;;;;;;;10.12;100.00;96036.81;10516684;28;2204;-68
2023/02/19 01:12:11;;;;;;;;;;;;;;;10.14;100.00;96046.22;10514093;28;2180;-68
2023/02/19 01:17:13;;;;;;;;;;;;;;;10.19;100.00;96037.38;10518142;28;2557;-68
2023/02/19 01:22:16;;;;;;;;;;;;;;;10.17;100.00;96024.19;10528609;28;3194;-67
2023/02/19 01:27:18;;;;;;;;;;;;;;;10.18;100.00;96019.63;10521111;28;2606;-68
2023/02/19 01:32:21;;;;;;;;;;;;;;;10.09;100.00;96016.66;10522418;28;2109;-67
2023/02/19 01:37:23;;;;;;;;;;;;;;;10.02;100.00;96021.47;10526982;28;2145;-68
2023/02/19 01:42:26;;;;;;;;;;;;;;;10.01;100.00;96011.78;10523322;28;2846;-71
2023/02/19 01:47:29;;;;;;;;;;;;;;;9.98;100.00;96004.25;10498178;28;2184;-68
2023/02/19 01:52:33;;;;;;;;;;;;;;;9.99;100.00;96004.00;10517465;28;2576;-69
2023/02/19 01:57:35;;;;;;;;;;;;;;;9.92;100.00;96000.72;10515487;28;2901;-67
2023/02/19 02:02:38;;;;;;;;;;;;;;;9.62;100.00;96003.31;10525403;28;2180;-68
2023/02/19 02:13:00;;;;;;;;;;;;;;;9.16;100.00;96003.06;10525105;28;2616;-68
2023/02/19 02:18:02;;;;;;;;;;;;;;;8.99;100.00;95989.81;10526687;28;2866;-68
2023/02/19 02:23:05;;;;;;;;;;;;;;;8.82;100.00;95994.50;10524570;28;2212;-69
2023/02/19 02:28:08;;;;;;;;;;;;;;;8.51;100.00;96015.69;10520939;28;2620;-68
2023/02/19 02:33:10;;;;;;;;;;;;;;;8.34;100.00;95999.72;10521617;28;2195;-72
2023/02/19 02:38:12;;;;;;;;;;;;;;;8.28;100.00;95994.56;10519338;28;3006;-69
2023/02/19 02:43:15;;;;;;;;;;;;;;;8.22;100.00;96004.41;10522351;28;2612;-68
2023/02/19 02:48:17;;;;;;;;;;;;;;;8.05;100.00;95998.34;10528328;28;2841;-70
2023/02/19 02:58:40;;;;;;;;;;;;;;;7.78;100.00;95987.63;10532232;28;2196;-69
2023/02/19 03:03:45;;;;;;;;;;;;;;;7.71;100.00;95981.66;10531074;28;2632;-68
2023/02/19 03:08:47;;;;;;;;;;;;;;;7.67;100.00;95956.44;10528599;28;2838;-69
2023/02/19 03:19:21;;;;;;;;;;;;;;;7.53;100.00;95975.56;10523476;28;2612;-67
2023/02/19 03:29:44;;;;;;;;;;;;;;;7.48;100.00;95972.81;10530012;28;2205;-73
2023/02/19 03:34:46;;;;;;;;;;;;;;;7.45;100.00;95973.31;10523824;28;2573;-69
2023/02/19 03:39:48;;;;;;;;;;;;;;;7.46;100.00;95977.59;10523355;28;2176;-70
2023/02/19 03:44:51;;;;;;;;;;;;;;;7.40;100.00;95978.59;10522784;28;2597;-69
2023/02/19 03:49:53;;;;;;;;;;;;;;;7.35;100.00;95962.50;10524186;28;2635;-72
2023/02/19 03:54:56;;;;;;;;;;;;;;;7.36;100.00;95966.78;10527298;28;2938;-68
2023/02/19 03:59:58;;;;;;;;;;;;;;;7.30;100.00;95965.09;10525964;28;2632;-69
2023/02/19 04:05:00;;;;;;;;;;;;;;;7.28;100.00;95969.88;10521416;28;2944;-69
2023/02/19 04:10:03;;;;;;;;;;;;;;;7.21;100.00;95970.06;10523460;28;2949;-69
2023/02/19 04:15:05;;;;;;;;;;;;;;;7.20;100.00;95957.75;10520881;28;2908;-69
2023/02/19 04:20:07;;;;;;;;;;;;;;;7.22;100.00;95936.13;10523567;28;2292;-69
2023/02/19 04:25:10;;;;;;;;;;;;;;;7.22;100.00;95946.81;10523245;28;2652;-69
2023/02/19 04:30:12;;;;;;;;;;;;;;;7.21;100.00;95945.19;10532495;28;2823;-69
2023/02/19 04:35:14;;;;;;;;;;;;;;;7.26;100.00;95950.63;10524029;28;2920;-68
2023/02/19 04:40:17;;;;;;;;;;;;;;;7.21;100.00;95955.88;10521093;28;2553;-70
2023/02/19 04:45:19;;;;;;;;;;;;;;;7.28;100.00;95977.91;10541871;28;2845;-69
2023/02/19 04:50:22;;;;;;;;;;;;;;;7.29;100.00;95961.59;10526113;28;2870;-68
2023/02/19 04:55:24;;;;;;;;;;;;;;;7.37;100.00;95957.69;10523843;28;2853;-71
2023/02/19 05:00:26;;;;;;;;;;;;;;;7.36;100.00;95958.75;10523235;28;2201;-68
2023/02/19 05:05:29;;;;;;;;;;;;;;;7.42;100.00;95967.66;10526069;28;2652;-69
2023/02/19 05:10:32;;;;;;;;;;;;;;;7.47;100.00;95967.72;10524904;28;2870;-68
2023/02/19 05:15:34;;;;;;;;;;;;;;;7.46;100.00;95956.22;10527112;28;2157;-69
2023/02/19 05:20:37;;;;;;;;;;;;;;;7.50;100.00;95965.34;10519515;28;2198;-68
2023/02/19 05:25:39;;;;;;;;;;;;;;;7.49;100.00;95968.28;10522018;28;2848;-67
2023/02/19 05:30:42;;;;;;;;;;;;;;;7.53;100.00;95978.22;10522196;28;2892;-71
2023/02/19 05:35:44;;;;;;;;;;;;;;;7.55;100.00;95983.31;10528342;28;2133;-67
2023/02/19 05:40:46;;;;;;;;;;;;;;;7.62;100.00;95991.16;10517596;28;2584;-67
2023/02/19 05:45:48;;;;;;;;;;;;;;;7.63;100.00;95980.19;10522218;28;2965;-68
2023/02/19 05:50:51;;;;;;;;;;;;;;;7.67;100.00;95994.72;10521464;28;2549;-68
2023/02/19 05:55:53;;;;;;;;;;;;;;;7.63;100.00;95995.44;10519113;28;2137;-67
2023/02/19 06:00:56;;;;;;;;;;;;;;;7.71;100.00;96003.88;10518358;28;2189;-68
2023/02/19 06:05:58;;;;;;;;;;;;;;;7.67;100.00;96002.72;10525866;28;2142;-67
2023/02/19 06:11:00;;;;;;;;;;;;;;;7.75;100.00;95994.25;10520354;28;2264;-67
2023/02/19 06:16:03;;;;;;;;;;;;;;;7.74;100.00;96007.91;10517884;28;2510;-67
2023/02/19 06:21:05;;;;;;;;;;;;;;;7.77;100.00;96010.09;10518188;28;2857;-67
2023/02/19 06:26:07;;;;;;;;;;;;;;;7.78;100.00;96012.50;10515331;28;2686;-68
2023/02/19 06:31:09;;;;;;;;;;;;;;;7.82;100.00;96018.16;10499764;28;2857;-69
2023/02/19 06:36:12;;;;;;;;;;;;;;;7.82;100.00;96031.53;10525000;28;2457;-69
2023/02/19 06:41:15;;;;;;;;;;;;;;;7.92;100.00;96020.97;10514444;28;2885;-69
2023/02/19 06:46:17;;;;;;;;;;;;;;;8.02;100.00;96036.34;10511304;28;2481;-68
2023/02/19 06:51:22;;;;;;;;;;;;;;;8.04;100.00;96037.69;10517333;28;3098;-67
2023/02/19 06:56:24;;;;;;;;;;;;;;;8.11;100.00;96040.97;10517855;28;3129;-68
2023/02/19 07:01:27;;;;;;;;;;;;;;;8.21;100.00;96048.34;10528969;28;2378;-75
2023/02/19 07:06:29;;;;;;;;;;;;;;;8.24;100.00;96058.53;10524741;28;3033;-76
2023/02/19 07:11:31;;;;;;;;;;;;;;;8.39;100.00;96060.59;10524863;28;3184;-69
2023/02/19 07:16:34;;;;;;;;;;;;;;;8.45;100.00;96070.28;10526751;28;2895;-68
2023/02/19 07:21:37;;;;;;;;;;;;;;;8.42;100.00;96081.53;10541227;28;2457;-68
2023/02/19 07:26:39;;;;;;;;;;;;;;;8.43;100.00;96077.78;10525530;28;2469;-68
2023/02/19 07:31:41;;;;;;;;;;;;;;;8.52;100.00;96072.75;10523323;28;2517;-68
2023/02/19 07:36:44;;;;;;;;;;;;;;;8.51;100.00;96090.72;10524626;28;2390;-69
2023/02/19 07:41:46;;;;;;;;;;;;;;;8.60;100.00;96091.09;10523085;28;2536;-69
2023/02/19 07:46:49;;;;;;;;;;;;;;;8.55;100.00;96109.78;10519591;28;2458;-68
2023/02/19 07:51:53;;;;;;;;;;;;;;;8.66;100.00;96112.31;10523111;28;3261;-68
2023/02/19 07:56:56;;;;;;;;;;;;;;;8.65;100.00;96129.47;10522831;28;2450;-67
2023/02/19 08:07:18;;;;;;;;;;;;;;;8.81;100.00;96151.06;10519933;28;2440;-69
2023/02/19 08:17:40;;;;;;;;;;;;;;;8.72;100.00;96168.66;10520828;28;2465;-70
2023/02/19 08:22:43;;;;;;;;;;;;;;;8.86;100.00;96172.56;10522097;28;3233;-70
2023/02/19 08:27:45;;;;;;;;;;;;;;;8.99;100.00;96164.09;10523858;28;3149;-72
2023/02/19 08:32:48;;;;;;;;;;;;;;;8.96;100.00;96164.59;10521657;28;2434;-69
2023/02/19 08:37:50;;;;;;;;;;;;;;;9.03;100.00;96173.25;10516014;28;2900;-68
2023/02/19 08:42:52;;;;;;;;;;;;;;;9.15;100.00;96159.69;10517417;28;2441;-69
2023/02/19 08:47:55;;;;;;;;;;;;;;;9.00;100.00;96181.81;10520728;28;2552;-69
2023/02/19 08:52:57;;;;;;;;;;;;;;;8.97;100.00;96173.44;10516702;28;2917;-71
2023/02/19 08:58:00;;;;;;;;;;;;;;;9.12;100.00;96178.97;10523033;28;2469;-72
2023/02/19 09:03:03;;;;;;;;;;;;;;;8.97;100.00;96190.38;10522221;28;2409;-70
2023/02/19 09:08:05;;;;;;;;;;;;;;;8.91;100.00;96177.97;10502583;28;2476;-70
2023/02/19 09:13:07;;;;;;;;;;;;;;;8.69;100.00;96193.28;10521591;28;2872;-69
2023/02/19 09:18:10;;;;;;;;;;;;;;;8.53;100.00;96189.63;10523285;28;3156;-70
2023/02/19 09:23:12;;;;;;;;;;;;;;;8.74;100.00;96202.19;10521336;28;2449;-68
2023/02/19 09:28:15;;;;;;;;;;;;;;;9.06;100.00;96204.94;10520507;28;3237;-70
2023/02/19 09:33:18;;;;;;;;;;;;;;;9.19;100.00;96217.94;10517061;28;3298;-71
2023/02/19 09:38:20;;;;;;;;;;;;;;;9.01;100.00;96204.88;10520627;28;2394;-71
2023/02/19 09:43:22;;;;;;;;;;;;;;;8.56;100.00;96219.38;10515713;28;2861;-69
2023/02/19 09:48:25;;;;;;;;;;;;;;;8.38;100.00;96249.16;10519264;28;3153;-71
2023/02/19 09:53:27;;;;;;;;;;;;;;;8.21;100.00;96235.78;10519163;28;2927;-68
2023/02/19 09:58:29;;;;;;;;;;;;;;;8.29;100.00;96215.81;10522592;28;3008;-69
2023/02/19 10:03:33;;;;;;;;;;;;;;;8.52;100.00;96223.63;10519741;28;2884;-74
2023/02/19 10:08:36;;;;;;;;;;;;;;;8.56;100.00;96221.25;10520694;28;2914;-69
2023/02/19 10:13:38;;;;;;;;;;;;;;;8.64;100.00;96213.59;10523882;28;2473;-69
2023/02/19 10:18:42;;;;;;;;;;;;;;;9.01;100.00;96214.78;10524149;28;2532;-68
2023/02/19 10:23:44;;;;;;;;;;;;;;;9.36;100.00;96203.59;10524895;28;2382;-71
2023/02/19 10:28:47;;;;;;;;;;;;;;;9.83;100.00;96213.63;10526355;28;2988;-70
2023/02/19 10:33:49;;;;;;;;;;;;;;;9.81;100.00;96229.19;10524895;28;3238;-70
2023/02/19 10:38:51;;;;;;;;;;;;;;;9.89;100.00;96215.28;10533407;28;3219;-70
2023/02/19 10:43:54;;;;;;;;;;;;;;;9.97;100.00;96223.66;10537699;28;2857;-70
2023/02/19 10:48:56;;;;;;;;;;;;;;;10.23;100.00;96213.91;10533075;28;2470;-77
2023/02/19 10:53:59;;;;;;;;;;;;;;;10.57;100.00;96205.50;10527993;28;2920;-74
2023/02/19 10:59:01;;;;;;;;;;;;;;;10.31;100.00;96196.50;10530595;28;3168;-71
2023/02/19 11:04:03;;;;;;;;;;;;;;;10.24;100.00;96202.13;10531852;28;2480;-71
2023/02/19 11:09:06;;;;;;;;;;;;;;;10.36;100.00;96204.56;10535185;28;2987;-68
2023/02/19 11:14:08;;;;;;;;;;;;;;;10.81;100.00;96195.06;10531996;28;3298;-70
2023/02/19 11:19:10;;;;;;;;;;;;;;;10.69;100.00;96202.59;10533344;28;2434;-71
2023/02/19 11:24:12;;;;;;;;;;;;;;;10.74;100.00;96202.56;10533361;28;2869;-68
2023/02/19 11:29:15;;;;;;;;;;;;;;;10.78;100.00;96204.47;10532764;28;2885;-69
2023/02/19 11:34:20;;;;;;;;;;;;;;;11.10;100.00;96209.69;10525974;28;3219;-69
2023/02/19 11:39:22;;;;;;;;;;;;;;;11.03;100.00;96211.81;10530784;28;2952;-71
2023/02/19 11:44:29;;;;;;;;;;;;;;;10.27;100.00;96222.28;10527111;28;2873;-70
2023/02/19 11:49:31;;;;;;;;;;;;;;;9.52;100.00;96226.81;10527796;28;2559;-68
2023/02/19 11:54:34;;;;;;;;;;;;;;;9.29;100.00;96232.50;10522138;28;3043;-70
2023/02/19 11:59:36;;;;;;;;;;;;;;;9.61;100.00;96230.66;10526426;28;3169;-70
2023/02/19 12:04:39;;;;;;;;;;;;;;;9.79;100.00;96216.00;10527141;28;2896;-72
2023/02/19 12:09:41;;;;;;;;;;;;;;;9.87;100.00;96233.53;10525971;28;2861;-70
2023/02/19 12:14:44;;;;;;;;;;;;;;;10.19;100.00;96226.22;10521435;28;2921;-72
2023/02/19 12:19:46;;;;;;;;;;;;;;;10.43;100.00;96237.41;10528339;28;2438;-73
2023/02/19 12:24:49;;;;;;;;;;;;;;;10.36;100.00;96233.31;10529809;28;3186;-72
2023/02/19 12:29:51;;;;;;;;;;;;;;;10.42;100.00;96224.22;10526800;28;2000;-70
2023/02/19 12:34:53;;;;;;;;;;;;;;;10.76;100.00;96236.22;10525040;28;3185;-70
2023/02/19 12:39:56;;;;;;;;;;;;;;;10.20;100.00;96249.34;10511228;28;3452;-72
2023/02/19 12:44:58;;;;;;;;;;;;;;;9.95;100.00;96278.72;10524618;28;2483;-72
2023/02/19 12:50:01;;;;;;;;;;;;;;;9.38;100.00;96281.97;10526864;28;3290;-72
2023/02/19 12:55:03;;;;;;;;;;;;;;;9.21;100.00;96272.13;10524194;28;2490;-71
2023/02/19 13:00:06;;;;;;;;;;;;;;;9.38;100.00;96269.34;10530003;28;2863;-70
2023/02/19 13:05:09;;;;;;;;;;;;;;;9.52;100.00;96269.75;10527079;28;3244;-72
2023/02/19 13:10:12;;;;;;;;;;;;;;;9.72;100.00;96264.56;10525117;28;3520;-73
2023/02/19 13:15:14;;;;;;;;;;;;;;;9.68;100.00;96276.06;10505519;28;3325;-71
2023/02/19 13:20:17;;;;;;;;;;;;;;;9.60;100.00;96271.97;10525006;28;2422;-72
2023/02/19 13:25:19;;;;;;;;;;;;;;;10.05;100.00;96280.66;10524852;28;2897;-71
2023/02/19 13:30:22;;;;;;;;;;;;;;;10.51;100.00;96281.81;10517628;28;2912;-70
2023/02/19 13:35:26;;;;;;;;;;;;;;;10.62;100.00;96256.56;10528085;28;2316;-70
2023/02/19 13:40:28;;;;;;;;;;;;;;;10.53;100.00;96244.72;10490664;28;2965;-70
2023/02/19 13:45:31;;;;;;;;;;;;;;;10.26;100.00;96247.53;10486059;28;2402;-72
2023/02/19 13:50:34;;;;;;;;;;;;;;;9.86;100.00;96253.38;10487078;28;3173;-70
2023/02/19 13:55:37;;;;;;;;;;;;;;;9.58;100.00;96268.72;10489325;28;2840;-71
2023/02/19 14:00:42;;;;;;;;;;;;;;;9.63;100.00;96266.09;10487433;28;2888;-70
2023/02/19 14:05:45;;;;;;;;;;;;;;;9.70;100.00;96255.16;10479632;28;2781;-72
2023/02/19 14:10:47;;;;;;;;;;;;;;;9.64;100.00;96259.66;10507231;28;2951;-70
2023/02/19 14:15:50;;;;;;;;;;;;;;;9.65;100.00;96269.31;10501448;28;3588;-71
2023/02/19 14:20:52;;;;;;;;;;;;;;;9.69;100.00;96264.28;10507318;28;2449;-70
2023/02/19 14:25:55;;;;;;;;;;;;;;;9.39;100.00;96254.06;10500901;28;2433;-73
2023/02/19 14:30:57;;;;;;;;;;;;;;;9.43;100.00;96260.56;10504012;28;2398;-75
2023/02/19 14:36:00;;;;;;;;;;;;;;;9.41;100.00;96274.19;10503201;28;3173;-77
2023/02/19 14:41:02;;;;;;;;;;;;;;;9.33;100.00;96260.44;10540370;28;2528;-72
2023/02/19 14:46:05;;;;;;;;;;;;;;;9.46;100.00;96265.41;10535533;28;2382;-70
2023/02/19 14:51:07;;;;;;;;;;;;;;;9.44;100.00;96278.25;10540044;28;3068;-71
2023/02/19 14:56:10;;;;;;;;;;;;;;;9.34;100.00;96296.94;10536850;28;2403;-70
2023/02/19 15:01:12;;;;;;;;;;;;;;;9.33;100.00;96295.31;10536769;28;3177;-71
2023/02/19 15:06:16;;;;;;;;;;;;;;;9.38;100.00;96300.75;10536123;28;3353;-70
2023/02/19 15:11:18;;;;;;;;;;;;;;;9.37;100.00;96294.56;10517085;28;2861;-70
2023/02/19 15:16:21;;;;;;;;;;;;;;;9.29;100.00;96297.72;10539884;28;2454;-71
2023/02/19 15:21:26;;;;;;;;;;;;;;;9.27;100.00;96315.09;10530013;28;3308;-70
2023/02/19 15:26:29;;;;;;;;;;;;;;;9.30;100.00;96328.03;10527778;28;3150;-71
2023/02/19 15:31:31;;;;;;;;;;;;;;;9.17;100.00;96331.91;10525155;28;2861;-69
2023/02/19 15:36:34;;;;;;;;;;;;;;;8.98;100.00;96344.00;10525837;28;2892;-71
2023/02/19 15:41:37;;;;;;;;;;;;;;;8.86;100.00;96330.72;10530234;28;3217;-71
2023/02/19 15:46:39;;;;;;;;;;;;;;;8.69;100.00;96335.31;10528551;28;3192;-71
2023/02/19 15:51:42;;;;;;;;;;;;;;;8.54;100.00;96334.06;10527665;28;2521;-71
2023/02/19 15:56:44;;;;;;;;;;;;;;;8.41;100.00;96339.75;10527447;28;3249;-72
2023/02/19 16:01:46;;;;;;;;;;;;;;;8.30;100.00;96333.41;10526302;28;3162;-72
2023/02/19 16:06:49;;;;;;;;;;;;;;;8.11;100.00;96335.53;10526181;28;3244;-77
2023/02/19 16:11:51;;;;;;;;;;;;;;;8.04;100.00;96329.53;10530566;28;2446;-68
2023/02/19 16:16:54;;;;;;;;;;;;;;;7.95;100.00;96333.69;10529236;28;2437;-70
2023/02/19 16:21:56;;;;;;;;;;;;;;;7.87;100.00;96355.47;10530510;28;3016;-71
2023/02/19 16:26:58;;;;;;;;;;;;;;;7.83;100.00;96349.00;10530562;28;3149;-72
2023/02/19 16:32:01;;;;;;;;;;;;;;;7.71;100.00;96362.44;10508631;28;3181;-69
2023/02/19 16:37:03;;;;;;;;;;;;;;;7.63;100.00;96367.34;10526165;28;2425;-71
2023/02/19 16:42:06;;;;;;;;;;;;;;;7.55;100.00;96377.38;10529420;28;2480;-71
2023/02/19 16:47:09;;;;;;;;;;;;;;;7.50;100.00;96381.84;10531431;28;2413;-71
2023/02/19 16:52:11;;;;;;;;;;;;;;;7.41;100.00;96396.66;10526916;28;3109;-69
2023/02/19 16:57:13;;;;;;;;;;;;;;;7.36;100.00;96397.34;10526011;28;3000;-70
2023/02/19 17:02:16;;;;;;;;;;;;;;;7.35;100.00;96411.78;10530786;28;3237;-67
2023/02/19 17:07:18;;;;;;;;;;;;;;;7.41;100.00;96421.53;10524860;28;2904;-69
2023/02/19 17:12:21;;;;;;;;;;;;;;;7.49;100.00;96428.38;10528605;28;3297;-69
2023/02/19 17:17:23;;;;;;;;;;;;;;;7.57;100.00;96431.50;10522662;28;2462;-67
2023/02/19 17:22:26;;;;;;;;;;;;;;;7.66;100.00;96431.09;10526160;28;3110;-74
2023/02/19 17:27:28;;;;;;;;;;;;;;;7.71;100.00;96439.22;10526844;28;3126;-71
2023/02/19 17:32:31;;;;;;;;;;;;;;;7.75;100.00;96445.72;10526515;28;2469;-69
2023/02/19 17:37:33;;;;;;;;;;;;;;;7.77;100.00;96459.69;10520662;28;2405;-70
2023/02/19 17:42:36;;;;;;;;;;;;;;;7.80;100.00;96451.16;10525523;28;3150;-70
2023/02/19 17:47:38;;;;;;;;;;;;;;;7.90;100.00;96456.72;10524883;28;2940;-70
2023/02/19 17:52:41;;;;;;;;;;;;;;;7.86;100.00;96471.63;10529650;28;2912;-71
2023/02/19 17:57:43;;;;;;;;;;;;;;;7.85;100.00;96486.06;10525093;28;3204;-70
2023/02/19 18:02:46;;;;;;;;;;;;;;;7.89;100.00;96489.91;10524741;28;2540;-74
2023/02/19 18:07:48;;;;;;;;;;;;;;;7.85;100.00;96491.41;10521823;28;2472;-70
2023/02/19 18:12:50;;;;;;;;;;;;;;;7.85;100.00;96507.47;10525085;28;2410;-71
2023/02/19 18:17:54;;;;;;;;;;;;;;;7.78;100.00;96509.47;10526673;28;3176;-73
2023/02/19 18:22:57;;;;;;;;;;;;;;;7.75;100.00;96524.13;10524332;28;3022;-72
2023/02/19 18:28:00;;;;;;;;;;;;;;;7.85;100.00;96536.94;10501689;28;2406;-68
2023/02/19 18:33:06;;;;;;;;;;;;;;;7.75;100.00;96542.06;10523981;28;3239;-69
2023/02/19 18:38:09;;;;;;;;;;;;;;;7.80;100.00;96548.34;10526036;28;2473;-71
2023/02/19 18:43:12;;;;;;;;;;;;;;;7.77;100.00;96553.38;10542312;28;2494;-71
2023/02/19 18:48:15;;;;;;;;;;;;;;;7.77;100.00;96548.00;10523725;28;2477;-70
2023/02/19 18:53:18;;;;;;;;;;;;;;;7.81;100.00;96562.53;10538236;28;2948;-70
2023/02/19 18:58:24;;;;;;;;;;;;;;;7.84;100.00;96564.75;10539355;28;3197;-69
2023/02/19 19:03:27;;;;;;;;;;;;;;;7.79;100.00;96570.00;10552018;27;3155;-70
2023/02/19 19:08:30;;;;;;;;;;;;;;;7.73;100.00;96584.31;10536332;28;2916;-69
2023/02/19 19:13:34;;;;;;;;;;;;;;;7.70;100.00;96577.59;10530257;28;2953;-70
2023/02/19 19:18:41;;;;;;;;;;;;;;;7.72;100.00;96569.31;10532333;28;3146;-74
2023/02/19 19:23:50;;;;;;;;;;;;;;;7.76;100.00;96579.31;10531496;28;2457;-71
2023/02/19 19:29:00;;;;;;;;;;;;;;;7.70;100.00;96563.34;10548514;27;3209;-72
2023/02/19 19:34:03;;;;;;;;;;;;;;;7.65;100.00;96564.09;10530150;28;2594;-70
2023/02/19 19:39:06;;;;;;;;;;;;;;;7.54;100.00;96560.38;10529845;28;3175;-72
2023/02/19 19:44:10;;;;;;;;;;;;;;;7.54;100.00;96564.91;10512503;28;2932;-69
2023/02/19 19:49:13;;;;;;;;;;;;;;;7.55;100.00;96564.66;10528154;28;2477;-71
2023/02/19 19:54:16;;;;;;;;;;;;;;;7.50;100.00;96550.38;10532280;28;2433;-70
2023/02/19 19:59:20;;;;;;;;;;;;;;;7.51;100.00;96563.53;10524015;28;2846;-70
2023/02/19 20:04:23;;;;;;;;;;;;;;;7.54;100.00;96565.72;10528087;28;2995;-69
2023/02/19 20:09:27;;;;;;;;;;;;;;;7.51;100.00;96578.78;10529842;28;2487;-69
2023/02/19 20:14:34;;;;;;;;;;;;;;;7.47;100.00;96582.94;10530612;28;2469;-70
2023/02/19 20:19:38;;;;;;;;;;;;;;;7.44;100.00;96576.19;10527359;28;3173;-69
2023/02/19 20:24:41;;;;;;;;;;;;;;;7.45;100.00;96579.72;10549247;27;2865;-70
2023/02/19 20:29:44;;;;;;;;;;;;;;;7.43;100.00;96585.28;10541366;27;2403;-70
2023/02/19 20:34:47;;;;;;;;;;;;;;;7.47;100.00;96575.75;10521721;28;3173;-69
2023/02/19 20:39:49;;;;;;;;;;;;;;;7.52;100.00;96591.91;10523956;28;2394;-70
2023/02/19 20:44:51;;;;;;;;;;;;;;;7.48;100.00;96576.53;10549153;27;3050;-70
2023/02/19 20:49:54;;;;;;;;;;;;;;;7.43;100.00;96579.91;10520293;28;2833;-69
2023/02/19 20:54:56;;;;;;;;;;;;;;;7.39;100.00;96581.44;10525142;28;2990;-69
2023/02/19 20:59:59;;;;;;;;;;;;;;;7.43;100.00;96587.13;10525744;28;3192;-70
2023/02/19 21:05:02;;;;;;;;;;;;;;;7.46;100.00;96595.50;10520806;28;2480;-69
2023/02/19 21:10:04;;;;;;;;;;;;;;;7.38;100.00;96603.91;10527307;28;3030;-68
2023/02/19 21:15:07;;;;;;;;;;;;;;;7.45;100.00;96595.75;10522630;28;2469;-68
2023/02/19 21:20:09;;;;;;;;;;;;;;;7.35;100.00;96596.31;10529893;28;2868;-66
2023/02/19 21:25:11;;;;;;;;;;;;;;;7.36;100.00;96605.97;10515575;28;2422;-68
2023/02/19 21:30:14;;;;;;;;;;;;;;;7.35;100.00;96611.56;10523551;28;2927;-67
2023/02/19 21:35:16;;;;;;;;;;;;;;;7.35;100.00;96604.34;10524641;28;2873;-67
2023/02/19 21:40:20;;;;;;;;;;;;;;;7.40;100.00;96599.13;10524349;28;2829;-67
2023/02/19 21:45:23;;;;;;;;;;;;;;;7.47;100.00;96599.81;10521868;28;3169;-71
2023/02/19 21:50:25;;;;;;;;;;;;;;;7.44;100.00;96608.28;10525062;28;2919;-68
2023/02/19 21:55:28;;;;;;;;;;;;;;;7.44;100.00;96596.78;10519968;28;3180;-69
2023/02/19 22:00:30;;;;;;;;;;;;;;;7.38;100.00;96595.88;10510008;28;2853;-74
2023/02/19 22:05:33;;;;;;;;;;;;;;;7.36;100.00;96594.47;10524007;28;2476;-78
2023/02/19 22:10:35;;;;;;;;;;;;;;;7.40;100.00;96599.13;10520572;28;2481;-71
2023/02/19 22:15:37;;;;;;;;;;;;;;;7.43;100.00;96609.34;10521868;28;3286;-69
2023/02/19 22:20:40;;;;;;;;;;;;;;;7.38;100.00;96597.72;10523901;28;2454;-69
2023/02/19 22:25:42;;;;;;;;;;;;;;;7.37;100.00;96602.25;10522707;28;3132;-69
2023/02/19 22:30:45;;;;;;;;;;;;;;;7.36;100.00;96614.00;10530296;28;3110;-68
2023/02/19 22:35:47;;;;;;;;;;;;;;;7.31;100.00;96608.53;10533770;28;3176;-69
2023/02/19 22:40:50;;;;;;;;;;;;;;;7.31;100.00;96601.31;10531137;28;2481;-68
2023/02/19 22:45:52;;;;;;;;;;;;;;;7.27;100.00;96602.03;10534028;28;2485;-68
2023/02/19 22:50:54;;;;;;;;;;;;;;;7.28;100.00;96601.78;10531977;28;3164;-68
2023/02/19 22:55:58;;;;;;;;;;;;;;;7.36;100.00;96605.97;10527253;28;2924;-68
2023/02/19 23:01:01;;;;;;;;;;;;;;;7.40;100.00;96612.50;10512154;28;2889;-68
2023/02/19 23:06:03;;;;;;;;;;;;;;;7.44;100.00;96623.53;10531464;28;3297;-69
2023/02/19 23:11:06;;;;;;;;;;;;;;;7.44;100.00;96628.88;10530990;28;3184;-69
2023/02/19 23:16:08;;;;;;;;;;;;;;;7.35;100.00;96631.09;10524423;28;2834;-69
2023/02/19 23:21:11;;;;;;;;;;;;;;;7.41;100.00;96632.84;10533169;28;3207;-70
2023/02/19 23:26:13;;;;;;;;;;;;;;;7.42;100.00;96647.03;10529649;28;2469;-69
2023/02/19 23:31:16;;;;;;;;;;;;;;;7.44;100.00;96640.38;10526774;28;2394;-70
2023/02/19 23:36:19;;;;;;;;;;;;;;;7.40;100.00;96633.09;10507786;28;3188;-68
2023/02/19 23:41:21;;;;;;;;;;;;;;;7.35;100.00;96635.63;10505903;28;2861;-69
2023/02/19 23:46:24;;;;;;;;;;;;;;;7.36;100.00;96640.75;10543143;27;2869;-67
2023/02/19 23:51:26;;;;;;;;;;;;;;;7.36;100.00;96642.59;10532461;28;2888;-69
2023/02/19 23:56:29;;;;;;;;;;;;;;;7.39;100.00;96634.94;10522826;28;2842;-69
